Time;durP1;ratioP1;P1;durP2;ratioP2;P2;SDS_P1;SDS_P2;PMS_P1;PMS_P2;Temp;Humidity;BMP_temperature;BMP_pressure;BME280_temperature;BME280_humidity;BME280_pressure;Samples;Min_cycle;Max_cycle;Signal;HPM_P1;HPM_P2
2022/09/14 00:01:39;;;;;;;6.07;0.93;;;18.50;73.60;;;;;;5073801;28;20047;-82
2022/09/14 00:04:13;;;;;;;4.43;0.60;;;18.50;73.80;;;;;;5073791;28;20020;-82
2022/09/14 00:06:40;;;;;;;5.47;1.23;;;18.50;73.90;;;;;;5073159;28;20511;-82
2022/09/14 00:09:06;;;;;;;5.40;0.80;;;18.50;73.90;;;;;;5073311;28;20496;-82
2022/09/14 00:11:34;;;;;;;7.55;0.70;;;18.50;73.90;;;;;;5073262;28;20021;-82
2022/09/14 00:14:01;;;;;;;2.90;0.50;;;18.50;74.60;;;;;;5073090;28;20016;-82
2022/09/14 00:16:32;;;;;;;7.40;0.60;;;18.40;74.10;;;;;;5073156;28;20384;-82
2022/09/14 00:19:04;;;;;;;10.63;1.10;;;18.50;74.30;;;;;;5073356;28;20043;-82
2022/09/14 00:21:30;;;;;;;4.45;0.80;;;18.40;74.80;;;;;;5073104;28;20480;-82
2022/09/14 00:23:56;;;;;;;5.47;1.02;;;18.40;74.10;;;;;;5073210;28;20024;-82
2022/09/14 00:26:22;;;;;;;6.65;0.60;;;18.40;74.00;;;;;;5056415;28;20036;-82
2022/09/14 00:28:50;;;;;;;6.35;0.80;;;18.40;74.00;;;;;;5039917;28;20119;-82
2022/09/14 00:31:17;;;;;;;4.28;0.55;;;18.40;74.10;;;;;;5074125;28;20051;-82
2022/09/14 00:33:48;;;;;;;2.92;0.70;;;18.40;74.20;;;;;;5072793;28;20154;-82
2022/09/14 00:36:19;;;;;;;3.58;0.60;;;18.30;74.20;;;;;;5056542;28;20029;-82
2022/09/14 00:38:46;;;;;;;3.35;0.45;;;18.30;74.20;;;;;;5072694;28;20540;-82
2022/09/14 00:41:21;;;;;;;2.85;0.43;;;18.30;74.20;;;;;;5056002;28;20028;-82
2022/09/14 00:44:09;;;;;;;4.78;0.70;;;18.30;74.20;;;;;;5072670;28;20390;-82
2022/09/14 00:46:38;;;;;;;7.57;0.88;;;18.20;74.30;;;;;;5072500;28;20025;-82
2022/09/14 00:49:15;;;;;;;5.53;0.90;;;18.20;74.30;;;;;;5073825;28;20031;-82
2022/09/14 00:52:14;;;;;;;4.10;0.60;;;18.20;74.40;;;;;;5073716;28;20109;-82
2022/09/14 00:54:48;;;;;;;3.30;0.93;;;18.10;74.50;;;;;;5073086;28;20072;-82
2022/09/14 00:57:15;;;;;;;6.20;0.70;;;18.10;74.50;;;;;;5072423;28;20023;-82
2022/09/14 00:59:43;;;;;;;5.97;0.70;;;18.10;74.50;;;;;;5072282;28;20036;-82
2022/09/14 01:02:10;;;;;;;3.78;0.50;;;18.00;74.50;;;;;;5072429;28;20037;-82
2022/09/14 01:04:36;;;;;;;3.25;0.70;;;18.00;74.50;;;;;;5072439;28;20061;-82
2022/09/14 01:07:41;;;;;;;5.13;0.57;;;17.90;74.50;;;;;;5055750;28;20082;-82
2022/09/14 01:10:25;;;;;;;6.50;0.60;;;18.00;74.70;;;;;;5072364;28;20111;-82
2022/09/14 01:13:03;;;;;;;5.40;0.63;;;18.00;74.70;;;;;;5072226;28;20021;-82
2022/09/14 01:15:48;;;;;;;2.22;0.60;;;17.90;74.70;;;;;;5072198;28;20024;-82
2022/09/14 01:18:24;;;;;;;7.28;0.60;;;17.90;74.80;;;;;;5073231;28;20032;-82
2022/09/14 01:20:57;;;;;;;6.03;0.65;;;17.90;74.80;;;;;;5073426;28;20036;-82
2022/09/14 01:23:36;;;;;;;3.13;0.70;;;17.90;75.10;;;;;;5072144;28;20017;-82
2022/09/14 01:26:29;;;;;;;4.63;0.60;;;17.80;75.10;;;;;;5072083;28;20495;-82
2022/09/14 01:29:08;;;;;;;8.20;0.93;;;17.80;75.20;;;;;;5073341;28;20020;-81
2022/09/14 01:31:43;;;;;;;5.85;0.77;;;17.80;75.10;;;;;;5072027;28;20028;-81
2022/09/14 01:34:15;;;;;;;3.83;0.60;;;17.70;75.30;;;;;;5072076;28;20028;-81
2022/09/14 01:36:45;;;;;;;4.75;0.70;;;17.80;75.50;;;;;;5072017;28;20021;-81
2022/09/14 01:39:13;;;;;;;4.60;0.57;;;17.80;75.60;;;;;;5072335;28;20032;-81
2022/09/14 01:41:41;;;;;;;5.55;0.70;;;17.70;75.50;;;;;;5055525;28;20098;-81
2022/09/14 01:44:43;;;;;;;4.60;0.63;;;17.70;75.50;;;;;;5055285;28;20500;-81
2022/09/14 01:47:18;;;;;;;2.42;0.50;;;17.80;75.60;;;;;;5070575;28;20071;-81
2022/09/14 01:49:52;;;;;;;2.72;0.60;;;17.80;75.50;;;;;;5072157;28;20048;-81
2022/09/14 01:52:27;;;;;;;4.25;0.43;;;17.80;75.50;;;;;;5071904;28;20111;-81
2022/09/14 01:55:05;;;;;;;3.33;0.50;;;17.80;75.50;;;;;;5073179;28;20100;-81
2022/09/14 01:57:41;;;;;;;2.30;0.50;;;17.80;75.40;;;;;;5071753;28;20024;-81
2022/09/14 02:00:11;;;;;;;3.67;0.57;;;17.80;75.40;;;;;;5072919;28;20492;-81
2022/09/14 02:02:39;;;;;;;6.43;1.40;;;17.80;75.40;;;;;;5072058;28;20029;-81
2022/09/14 02:05:32;;;;;;;4.07;0.50;;;17.70;75.40;;;;;;5073067;28;20047;-81
2022/09/14 02:07:59;;;;;;;3.75;0.40;;;17.80;75.60;;;;;;5073206;28;20472;-81
2022/09/14 02:10:25;;;;;;;2.22;0.55;;;17.80;75.60;;;;;;5071586;28;20025;-80
2022/09/14 02:12:52;;;;;;;3.35;0.50;;;17.70;75.60;;;;;;5071742;28;20033;-81
2022/09/14 02:15:18;;;;;;;3.88;0.52;;;17.70;75.60;;;;;;5071607;28;20065;-80
2022/09/14 02:17:45;;;;;;;3.22;0.40;;;17.70;75.60;;;;;;5054948;28;20107;-80
2022/09/14 02:20:50;;;;;;;2.78;0.40;;;17.70;75.60;;;;;;5054975;28;20035;-81
2022/09/14 02:23:17;;;;;;;2.25;0.40;;;17.70;75.60;;;;;;5072104;28;20115;-81
2022/09/14 02:25:44;;;;;;;3.60;0.60;;;17.70;75.60;;;;;;5071817;28;20031;-80
2022/09/14 02:28:10;;;;;;;6.18;0.70;;;17.70;76.20;;;;;;5071502;28;20116;-80
2022/09/14 02:30:46;;;;;;;3.92;0.60;;;17.70;75.70;;;;;;5039597;28;20060;-80
2022/09/14 02:33:17;;;;;;;2.90;0.60;;;17.70;75.70;;;;;;5075060;28;20506;-80
2022/09/14 02:35:54;;;;;;;2.15;0.40;;;17.70;75.70;;;;;;5074891;28;20071;-80
2022/09/14 02:38:51;;;;;;;4.18;0.57;;;17.70;75.70;;;;;;5076312;28;20489;-80
2022/09/14 02:41:36;;;;;;;3.47;0.50;;;17.70;75.70;;;;;;5076437;28;20025;-80
2022/09/14 02:44:09;;;;;;;4.15;0.50;;;17.70;75.60;;;;;;5074773;28;20024;-80
2022/09/14 02:46:53;;;;;;;2.97;0.50;;;17.70;75.50;;;;;;5076597;28;20048;-81
2022/09/14 02:49:19;;;;;;;2.13;0.32;;;17.70;75.50;;;;;;5074904;28;20388;-81
2022/09/14 02:51:51;;;;;;;2.10;0.45;;;17.70;75.50;;;;;;5075122;28;20029;-81
2022/09/14 02:54:24;;;;;;;4.32;0.32;;;17.70;75.60;;;;;;5074743;28;20060;-81
2022/09/14 02:56:49;;;;;;;3.92;0.80;;;17.60;75.80;;;;;;5074938;28;20101;-81
2022/09/14 02:59:17;;;;;;;1.92;0.40;;;17.60;75.90;;;;;;5074660;28;20081;-81
2022/09/14 03:01:43;;;;;;;2.78;0.47;;;17.60;76.10;;;;;;5074534;28;20506;-81
2022/09/14 03:04:09;;;;;;;2.95;0.40;;;17.60;76.40;;;;;;5058437;28;20155;-81
2022/09/14 03:06:35;;;;;;;2.83;0.30;;;17.60;76.60;;;;;;5074767;28;20477;-81
2022/09/14 03:09:00;;;;;;;3.03;0.30;;;17.60;76.80;;;;;;5074665;28;20333;-80
2022/09/14 03:11:26;;;;;;;3.40;0.30;;;17.60;77.00;;;;;;5074536;28;20025;-80
2022/09/14 03:13:52;;;;;;;1.85;0.50;;;17.60;77.10;;;;;;5041136;28;20028;-80
2022/09/14 03:16:18;;;;;;;4.68;0.40;;;17.50;77.10;;;;;;5057714;28;20035;-81
2022/09/14 03:18:43;;;;;;;3.67;0.30;;;17.50;77.30;;;;;;5075669;28;20025;-80
2022/09/14 03:21:14;;;;;;;3.83;0.40;;;17.50;77.50;;;;;;5074308;28;20436;-80
2022/09/14 03:23:43;;;;;;;2.63;0.32;;;17.50;78.40;;;;;;5074250;28;20496;-79
2022/09/14 03:26:12;;;;;;;2.30;0.40;;;17.50;77.90;;;;;;5074284;28;20017;-79
2022/09/14 03:28:38;;;;;;;5.88;0.75;;;17.40;77.90;;;;;;5058257;28;20028;-79
2022/09/14 03:31:06;;;;;;;2.97;0.30;;;17.40;78.00;;;;;;5074417;28;20033;-78
2022/09/14 03:33:32;;;;;;;4.43;0.40;;;17.40;78.30;;;;;;5073966;28;20021;-79
2022/09/14 03:35:58;;;;;;;5.03;0.55;;;17.30;78.30;;;;;;5074011;28;20043;-79
2022/09/14 03:38:26;;;;;;;3.30;0.47;;;17.30;78.40;;;;;;5057297;28;20488;-79
2022/09/14 03:40:52;;;;;;;3.92;0.50;;;17.30;78.70;;;;;;5041241;28;20504;-79
2022/09/14 03:43:18;;;;;;;3.97;0.68;;;17.30;78.80;;;;;;5073240;28;20028;-78
2022/09/14 03:45:44;;;;;;;7.28;0.60;;;17.30;78.90;;;;;;5057110;28;20017;-79
2022/09/14 03:48:10;;;;;;;6.18;0.60;;;17.30;79.00;;;;;;5075058;28;20183;-80
2022/09/14 03:50:37;;;;;;;3.22;0.32;;;17.30;79.10;;;;;;5073914;28;20035;-79
2022/09/14 03:53:03;;;;;;;3.05;0.47;;;17.30;79.20;;;;;;5076223;28;20020;-79
2022/09/14 03:55:29;;;;;;;4.20;0.30;;;17.20;79.20;;;;;;5082622;28;20009;-79
2022/09/14 03:57:55;;;;;;;3.22;0.40;;;17.20;79.30;;;;;;5076950;28;20025;-79
2022/09/14 04:00:22;;;;;;;3.03;0.43;;;17.20;79.50;;;;;;5057736;28;20136;-79
2022/09/14 04:02:48;;;;;;;6.93;0.40;;;17.20;79.50;;;;;;5077883;28;20088;-79
2022/09/14 04:05:14;;;;;;;2.05;0.47;;;17.10;79.50;;;;;;5065331;28;20052;-80
2022/09/14 04:07:39;;;;;;;2.22;0.43;;;17.10;79.80;;;;;;5059904;28;20369;-79
2022/09/14 04:10:06;;;;;;;3.30;0.43;;;17.20;80.00;;;;;;5059600;28;20111;-79
2022/09/14 04:12:36;;;;;;;2.35;0.32;;;17.10;80.20;;;;;;5074071;28;20423;-80
2022/09/14 04:15:03;;;;;;;4.78;0.40;;;17.10;80.30;;;;;;5057356;28;20025;-82
2022/09/14 04:17:29;;;;;;;6.22;0.40;;;17.10;80.40;;;;;;5073448;28;20020;-81
2022/09/14 04:19:55;;;;;;;3.92;0.35;;;17.10;80.50;;;;;;5040041;28;20031;-81
2022/09/14 04:22:20;;;;;;;6.60;0.70;;;17.10;80.60;;;;;;5073265;28;20023;-81
2022/09/14 04:24:46;;;;;;;6.30;0.40;;;17.10;80.60;;;;;;5056344;28;20021;-81
2022/09/14 04:27:12;;;;;;;4.50;0.32;;;17.10;80.70;;;;;;5056382;28;20078;-81
2022/09/14 04:29:38;;;;;;;4.40;0.47;;;17.10;80.80;;;;;;5072862;28;20021;-81
2022/09/14 04:32:04;;;;;;;2.63;0.52;;;17.10;81.00;;;;;;5072950;28;20032;-81
2022/09/14 04:34:29;;;;;;;4.10;0.52;;;17.10;81.20;;;;;;5055623;28;20025;-81
2022/09/14 04:36:55;;;;;;;2.47;0.43;;;17.00;81.20;;;;;;5072488;28;20016;-81
2022/09/14 04:39:21;;;;;;;2.33;0.30;;;17.00;81.30;;;;;;5064901;28;20033;-80
2022/09/14 04:41:47;;;;;;;2.63;0.20;;;17.00;81.40;;;;;;5065097;28;20036;-81
2022/09/14 04:44:13;;;;;;;2.35;0.60;;;17.00;81.50;;;;;;5039352;28;20377;-81
2022/09/14 04:46:40;;;;;;;4.38;0.60;;;17.00;81.60;;;;;;5068950;28;20028;-80
2022/09/14 04:49:06;;;;;;;4.72;0.52;;;17.10;81.70;;;;;;5056692;28;20024;-81
2022/09/14 04:51:33;;;;;;;2.95;0.50;;;17.10;81.80;;;;;;5055877;28;20485;-81
2022/09/14 04:54:00;;;;;;;4.28;0.45;;;17.00;81.80;;;;;;5054949;28;20048;-81
2022/09/14 04:56:27;;;;;;;2.42;0.32;;;17.00;81.80;;;;;;5072589;28;20108;-81
2022/09/14 04:58:57;;;;;;;4.60;0.50;;;17.00;81.80;;;;;;5072369;28;20436;-82
2022/09/14 05:01:25;;;;;;;4.20;0.52;;;17.00;81.90;;;;;;5073448;28;20115;-82
2022/09/14 05:03:51;;;;;;;5.95;0.40;;;17.00;82.00;;;;;;5072435;28;20105;-82
2022/09/14 05:06:26;;;;;;;2.33;0.45;;;17.00;82.20;;;;;;5055555;28;20024;-82
2022/09/14 05:08:52;;;;;;;5.65;0.85;;;16.90;82.20;;;;;;5072596;28;20047;-83
2022/09/14 05:11:20;;;;;;;5.28;0.60;;;17.00;82.20;;;;;;5072299;28;20496;-83
2022/09/14 05:13:46;;;;;;;2.28;0.35;;;16.90;82.30;;;;;;5073635;28;20046;-83
2022/09/14 05:16:19;;;;;;;5.20;0.50;;;16.90;82.40;;;;;;5072632;28;20032;-83
2022/09/14 05:18:46;;;;;;;2.50;0.30;;;16.90;82.40;;;;;;5072410;28;20021;-83
2022/09/14 05:21:15;;;;;;;3.78;0.40;;;16.90;82.50;;;;;;5058594;28;20048;-83
2022/09/14 05:23:41;;;;;;;2.00;0.52;;;16.90;82.60;;;;;;5052078;28;20503;-83
2022/09/14 05:26:07;;;;;;;7.45;0.82;;;16.90;82.70;;;;;;5053370;28;20096;-82
2022/09/14 05:28:34;;;;;;;3.50;0.77;;;16.90;82.70;;;;;;5052418;28;20028;-83
2022/09/14 05:31:11;;;;;;;6.05;0.50;;;16.90;82.70;;;;;;5053422;28;20014;-83
2022/09/14 05:33:37;;;;;;;3.42;0.45;;;16.90;82.80;;;;;;5052183;28;20021;-83
2022/09/14 05:36:05;;;;;;;6.22;0.50;;;16.80;82.80;;;;;;5053317;28;20082;-82
2022/09/14 05:38:32;;;;;;;4.95;0.43;;;16.80;82.80;;;;;;5051883;28;20021;-81
2022/09/14 05:40:58;;;;;;;4.65;0.40;;;16.80;82.90;;;;;;5035566;28;20037;-78
2022/09/14 05:43:24;;;;;;;4.53;0.47;;;16.80;83.10;;;;;;5035477;28;20021;-78
2022/09/14 05:45:50;;;;;;;2.78;0.40;;;16.80;83.30;;;;;;5052014;28;20025;-78
2022/09/14 05:48:17;;;;;;;4.32;0.40;;;16.80;83.60;;;;;;5035512;28;20167;-84
2022/09/14 05:50:43;;;;;;;5.60;0.70;;;16.80;83.70;;;;;;5036149;28;20025;-86
2022/09/14 05:53:09;;;;;;;3.13;0.40;;;16.80;83.80;;;;;;5052399;28;20094;-84
2022/09/14 05:55:35;;;;;;;4.03;0.65;;;16.80;83.90;;;;;;5054693;28;20512;-85
2022/09/14 05:58:00;;;;;;;7.78;0.60;;;16.90;84.10;;;;;;5037786;28;20048;-85
2022/09/14 06:00:26;;;;;;;3.15;0.50;;;16.90;84.20;;;;;;5037001;28;20045;-85
2022/09/14 06:02:53;;;;;;;2.15;0.50;;;16.80;84.30;;;;;;5036657;28;20108;-85
2022/09/14 06:05:20;;;;;;;4.35;0.77;;;16.90;84.40;;;;;;5037542;28;20546;-85
2022/09/14 06:07:51;;;;;;;1.58;0.40;;;16.90;84.50;;;;;;5050724;28;20531;-85
2022/09/14 06:10:17;;;;;;;2.00;0.50;;;16.90;84.70;;;;;;5070370;28;20077;-84
2022/09/14 06:12:42;;;;;;;3.58;0.40;;;16.90;84.80;;;;;;5064123;28;20477;-84
2022/09/14 06:15:09;;;;;;;4.10;0.70;;;16.80;84.80;;;;;;5045531;28;20036;-85
2022/09/14 06:17:35;;;;;;;4.55;0.63;;;16.90;84.90;;;;;;5073457;28;20112;-84
2022/09/14 06:20:02;;;;;;;3.88;0.88;;;16.80;85.00;;;;;;5058941;28;20021;-86
2022/09/14 06:22:30;;;;;;;2.28;0.35;;;16.80;85.20;;;;;;5043017;28;20036;-83
2022/09/14 06:24:56;;;;;;;4.40;0.70;;;16.80;85.40;;;;;;5069287;28;20104;-82
2022/09/14 06:27:22;;;;;;;5.57;0.50;;;16.80;85.50;;;;;;5080213;28;20047;-84
2022/09/14 06:29:52;;;;;;;2.35;0.40;;;16.80;86.30;;;;;;5075497;28;20060;-83
2022/09/14 06:32:19;;;;;;;3.10;0.70;;;16.80;85.80;;;;;;5065936;28;20020;-84
2022/09/14 06:34:45;;;;;;;6.80;1.13;;;16.80;85.80;;;;;;5078125;28;20617;-86
2022/09/14 06:37:11;;;;;;;3.38;0.50;;;16.80;85.90;;;;;;5079449;28;20040;-86
2022/09/14 06:39:37;;;;;;;3.08;0.50;;;16.80;86.00;;;;;;5077280;28;20029;-86
2022/09/14 06:42:02;;;;;;;4.53;0.57;;;16.80;86.20;;;;;;5069829;28;20060;-86
2022/09/14 06:44:28;;;;;;;4.78;0.65;;;16.80;86.20;;;;;;5068122;28;20021;-86
2022/09/14 06:46:54;;;;;;;2.60;0.52;;;16.80;86.30;;;;;;5062655;28;20029;-85
2022/09/14 06:49:22;;;;;;;2.70;0.50;;;16.80;86.40;;;;;;5062273;28;20025;-85
2022/09/14 06:51:49;;;;;;;3.40;0.45;;;16.80;86.60;;;;;;5046083;28;20033;-85
2022/09/14 06:54:16;;;;;;;2.97;0.50;;;16.80;86.60;;;;;;5083343;28;20074;-86
2022/09/14 06:56:43;;;;;;;3.15;0.60;;;16.90;86.70;;;;;;5069988;28;20024;-85
2022/09/14 06:59:11;;;;;;;5.13;0.80;;;16.90;86.70;;;;;;5079837;28;20051;-86
2022/09/14 07:01:38;;;;;;;7.20;1.50;;;16.90;86.60;;;;;;5075841;28;20025;-84
2022/09/14 07:04:04;;;;;;;6.78;0.65;;;16.80;86.60;;;;;;5068912;28;20021;-86
2022/09/14 07:06:41;;;;;;;4.15;0.70;;;16.90;86.80;;;;;;5064274;28;20029;-85
2022/09/14 07:09:07;;;;;;;2.45;0.40;;;16.80;86.70;;;;;;5055124;28;20488;-85
2022/09/14 07:11:34;;;;;;;5.63;0.77;;;16.90;86.80;;;;;;5064900;28;20043;-84
2022/09/14 07:14:00;;;;;;;3.42;0.50;;;16.90;87.00;;;;;;5058646;28;20029;-84
2022/09/14 07:16:27;;;;;;;2.58;0.70;;;16.90;87.00;;;;;;5074036;28;20385;-84
2022/09/14 07:18:58;;;;;;;6.03;0.55;;;16.90;87.00;;;;;;5074140;28;20084;-83
2022/09/14 07:21:25;;;;;;;5.32;0.70;;;17.00;87.10;;;;;;5058267;28;20024;-83
2022/09/14 07:23:51;;;;;;;2.70;0.50;;;17.00;87.20;;;;;;5057607;28;20054;-83
2022/09/14 07:26:24;;;;;;;5.72;0.75;;;17.00;87.20;;;;;;5057898;28;20032;-83
2022/09/14 07:28:54;;;;;;;6.13;1.00;;;17.00;87.00;;;;;;5061699;28;20021;-84
2022/09/14 07:31:21;;;;;;;4.45;0.70;;;17.10;86.90;;;;;;5054198;28;20025;-83
2022/09/14 07:33:47;;;;;;;4.03;0.60;;;17.00;86.80;;;;;;5054014;28;20074;-83
2022/09/14 07:36:14;;;;;;;5.25;0.70;;;17.10;86.60;;;;;;5054419;28;20036;-84
2022/09/14 07:38:40;;;;;;;3.78;0.70;;;17.10;86.60;;;;;;5054129;28;20489;-85
2022/09/14 07:41:06;;;;;;;6.07;1.05;;;17.10;86.70;;;;;;5053832;28;20052;-84
2022/09/14 07:43:32;;;;;;;3.80;0.60;;;17.10;87.30;;;;;;5058830;28;20103;-84
2022/09/14 07:46:02;;;;;;;5.25;0.77;;;17.10;86.70;;;;;;5073533;28;20040;-84
2022/09/14 07:48:29;;;;;;;6.47;0.70;;;17.10;86.80;;;;;;5057061;28;20032;-84
2022/09/14 07:51:13;;;;;;;3.17;0.60;;;17.10;86.90;;;;;;5073874;28;20025;-84
2022/09/14 07:53:44;;;;;;;5.93;0.80;;;17.20;86.80;;;;;;5057020;28;20150;-84
2022/09/14 07:56:15;;;;;;;4.05;0.70;;;17.20;86.80;;;;;;5075051;28;20020;-84
2022/09/14 07:58:41;;;;;;;6.25;0.60;;;17.20;86.80;;;;;;5065314;28;20032;-83
2022/09/14 08:01:10;;;;;;;2.30;0.50;;;17.20;86.60;;;;;;5053781;28;20087;-84
2022/09/14 08:03:38;;;;;;;5.55;0.60;;;17.30;86.70;;;;;;5053478;28;20414;-84
2022/09/14 08:06:09;;;;;;;5.47;1.00;;;17.30;87.30;;;;;;5055023;28;20380;-85
2022/09/14 08:08:37;;;;;;;4.57;1.00;;;17.30;86.70;;;;;;5053331;28;20017;-84
2022/09/14 08:11:18;;;;;;;2.40;0.80;;;17.30;86.70;;;;;;5053414;28;20029;-83
2022/09/14 08:13:50;;;;;;;5.38;0.80;;;17.30;86.80;;;;;;5053586;28;20481;-83
2022/09/14 08:16:18;;;;;;;5.38;0.88;;;17.30;86.80;;;;;;5053799;28;20036;-84
2022/09/14 08:18:44;;;;;;;3.30;0.80;;;17.30;86.70;;;;;;5054644;28;20017;-83
2022/09/14 08:21:12;;;;;;;5.57;0.90;;;17.30;86.70;;;;;;5053271;28;20024;-83
2022/09/14 08:23:39;;;;;;;4.22;0.75;;;17.30;86.60;;;;;;5062480;28;20043;-83
2022/09/14 08:26:07;;;;;;;4.63;0.75;;;17.30;86.70;;;;;;5072987;28;20024;-81
2022/09/14 08:28:33;;;;;;;4.10;0.80;;;17.30;86.70;;;;;;5072702;28;20389;-82
2022/09/14 08:31:07;;;;;;;3.25;0.82;;;17.30;86.70;;;;;;5056328;28;20066;-81
2022/09/14 08:33:35;;;;;;;7.40;1.77;;;17.30;86.80;;;;;;5073049;28;20385;-81
2022/09/14 08:36:01;;;;;;;6.28;1.27;;;17.30;86.90;;;;;;5072728;28;20028;-81
2022/09/14 08:38:27;;;;;;;5.38;1.02;;;17.30;87.00;;;;;;5073881;28;20049;-81
2022/09/14 08:40:53;;;;;;;7.95;1.38;;;17.30;87.10;;;;;;5072954;28;20113;-82
2022/09/14 08:43:22;;;;;;;6.55;1.10;;;17.30;87.20;;;;;;5056227;28;20365;-82
2022/09/14 08:45:49;;;;;;;5.03;0.80;;;17.30;87.30;;;;;;5072726;28;20024;-82
2022/09/14 08:48:28;;;;;;;4.18;0.90;;;17.30;87.50;;;;;;5073203;28;20036;-82
2022/09/14 08:50:54;;;;;;;7.95;1.27;;;17.30;87.70;;;;;;5072646;28;20027;-82
2022/09/14 08:53:23;;;;;;;5.35;1.42;;;17.30;87.80;;;;;;5074838;28;20054;-82
2022/09/14 08:56:00;;;;;;;3.67;1.38;;;17.30;87.80;;;;;;5085061;28;20031;-82
2022/09/14 08:58:43;;;;;;;7.55;1.00;;;17.40;88.00;;;;;;5087756;28;20119;-82
2022/09/14 09:01:41;;;;;;;6.20;0.90;;;17.40;88.20;;;;;;5081657;28;20104;-82
2022/09/14 09:04:35;;;;;;;3.60;0.90;;;17.40;88.30;;;;;;5085013;28;20025;-82
2022/09/14 09:07:39;;;;;;;4.20;0.90;;;17.40;88.40;;;;;;5079336;28;20024;-84
2022/09/14 09:10:07;;;;;;;3.17;0.70;;;17.40;88.50;;;;;;5073755;28;20047;-86
2022/09/14 09:12:41;;;;;;;5.22;0.80;;;17.50;88.60;;;;;;5073079;28;20078;-86
2022/09/14 09:15:22;;;;;;;4.65;0.90;;;17.50;88.70;;;;;;5066849;28;20029;-86
2022/09/14 09:17:53;;;;;;;4.05;0.85;;;17.50;88.80;;;;;;5055294;28;20403;-86
2022/09/14 09:20:32;;;;;;;5.68;1.00;;;17.50;88.80;;;;;;5072728;28;20111;-86
2022/09/14 09:23:10;;;;;;;5.50;1.00;;;17.60;88.80;;;;;;5073141;28;20035;-86
2022/09/14 09:26:09;;;;;;;4.15;0.80;;;17.60;88.80;;;;;;5057559;28;20056;-85
2022/09/14 09:28:44;;;;;;;4.15;0.63;;;17.70;88.80;;;;;;5052366;28;20515;-86
2022/09/14 09:31:13;;;;;;;4.78;0.68;;;17.70;88.80;;;;;;5052824;28;20025;-86
2022/09/14 09:33:38;;;;;;;4.93;0.60;;;17.70;88.90;;;;;;5052667;28;20476;-86
2022/09/14 09:36:07;;;;;;;5.90;1.55;;;17.70;89.00;;;;;;5052653;28;20119;-86
2022/09/14 09:38:33;;;;;;;6.53;0.88;;;17.80;89.00;;;;;;5052473;28;20076;-86
2022/09/14 09:41:13;;;;;;;3.88;1.10;;;17.80;89.60;;;;;;5038741;28;20065;-82
2022/09/14 09:44:00;;;;;;;6.80;0.82;;;17.80;88.90;;;;;;5057015;28;20017;-82
2022/09/14 09:46:31;;;;;;;6.60;0.98;;;17.80;88.80;;;;;;5056547;28;20029;-83
2022/09/14 09:49:02;;;;;;;5.43;1.17;;;17.80;88.80;;;;;;5057168;28;20031;-82
2022/09/14 09:51:30;;;;;;;4.68;0.93;;;17.80;89.00;;;;;;5058641;28;20370;-83
2022/09/14 09:54:04;;;;;;;6.50;0.80;;;17.90;88.90;;;;;;5056830;28;20025;-82
2022/09/14 09:56:37;;;;;;;4.00;0.95;;;17.90;88.80;;;;;;5056890;28;20029;-82
2022/09/14 09:59:02;;;;;;;5.00;0.60;;;17.90;88.60;;;;;;5056858;28;20021;-82
2022/09/14 10:01:35;;;;;;;3.47;0.70;;;17.90;88.30;;;;;;5056343;28;20082;-82
2022/09/14 10:04:18;;;;;;;3.53;0.90;;;17.90;88.10;;;;;;5056720;28;20033;-82
2022/09/14 10:06:47;;;;;;;4.55;0.65;;;17.90;87.80;;;;;;5057916;28;20025;-82
2022/09/14 10:09:27;;;;;;;5.03;1.50;;;17.90;87.70;;;;;;5056147;28;20021;-82
2022/09/14 10:11:59;;;;;;;6.63;1.00;;;17.90;87.60;;;;;;5056199;28;20028;-82
2022/09/14 10:14:30;;;;;;;5.60;1.60;;;17.90;87.50;;;;;;5056349;28;20017;-82
2022/09/14 10:17:18;;;;;;;3.92;1.20;;;17.90;87.50;;;;;;5056796;28;20037;-82
2022/09/14 10:19:52;;;;;;;4.90;0.90;;;17.80;87.50;;;;;;5055662;28;20088;-82
2022/09/14 10:22:32;;;;;;;3.60;0.82;;;17.90;87.50;;;;;;5055348;28;20047;-81
2022/09/14 10:25:00;;;;;;;6.93;1.55;;;17.90;87.50;;;;;;5055919;28;20029;-82
2022/09/14 10:27:55;;;;;;;3.75;0.98;;;17.90;87.60;;;;;;5056089;28;20040;-83
2022/09/14 10:30:25;;;;;;;4.20;0.70;;;18.00;87.70;;;;;;5055665;28;20083;-82
2022/09/14 10:33:04;;;;;;;3.50;0.82;;;18.00;87.60;;;;;;5055499;28;20132;-82
2022/09/14 10:35:46;;;;;;;4.10;1.00;;;18.10;87.60;;;;;;5055278;28;20029;-81
2022/09/14 10:38:31;;;;;;;8.45;1.20;;;18.10;87.50;;;;;;5055456;28;20449;-82
2022/09/14 10:41:32;;;;;;;4.13;0.90;;;18.20;87.50;;;;;;5055065;28;20028;-82
2022/09/14 10:44:18;;;;;;;6.43;1.15;;;18.20;87.50;;;;;;5054301;28;20499;-81
2022/09/14 10:47:22;;;;;;;5.80;1.27;;;18.20;87.40;;;;;;5054843;28;20022;-79
2022/09/14 10:50:24;;;;;;;2.85;0.93;;;18.20;87.20;;;;;;5056721;28;20455;-79
2022/09/14 10:53:06;;;;;;;3.33;1.15;;;18.30;87.10;;;;;;5057204;28;20469;-79
2022/09/14 10:55:53;;;;;;;4.03;1.15;;;18.30;87.00;;;;;;5054699;28;20035;-79
2022/09/14 10:58:26;;;;;;;5.32;0.80;;;18.30;87.00;;;;;;5054736;28;20024;-79
2022/09/14 11:01:20;;;;;;;7.25;0.98;;;18.30;86.90;;;;;;5063375;28;20055;-80
2022/09/14 11:04:25;;;;;;;5.20;1.00;;;18.40;86.90;;;;;;5074665;28;20082;-80
2022/09/14 11:07:29;;;;;;;4.78;1.30;;;18.30;86.70;;;;;;5058725;28;20029;-79
2022/09/14 11:10:20;;;;;;;5.35;1.23;;;18.40;86.80;;;;;;5054337;28;20019;-79
2022/09/14 11:12:54;;;;;;;3.13;0.98;;;18.40;87.30;;;;;;5054531;28;20021;-79
2022/09/14 11:15:44;;;;;;;4.90;1.20;;;18.50;86.70;;;;;;5054387;28;20469;-80
2022/09/14 11:18:39;;;;;;;4.68;0.85;;;18.50;86.60;;;;;;5055575;28;20017;-78
2022/09/14 11:21:22;;;;;;;3.33;1.13;;;18.60;86.50;;;;;;5056827;28;20052;-78
2022/09/14 11:24:01;;;;;;;5.55;1.10;;;18.50;86.10;;;;;;5054084;28;20021;-78
2022/09/14 11:26:37;;;;;;;6.65;1.23;;;18.50;85.90;;;;;;5054433;28;20021;-78
2022/09/14 11:29:45;;;;;;;6.88;1.40;;;18.60;85.70;;;;;;5062962;28;20039;-79
2022/09/14 11:32:36;;;;;;;6.07;1.30;;;18.60;85.70;;;;;;5063809;28;20079;-78
2022/09/14 11:35:10;;;;;;;3.15;0.90;;;18.60;85.50;;;;;;5071463;28;20503;-78
2022/09/14 11:37:41;;;;;;;6.75;1.40;;;18.60;85.40;;;;;;5073663;28;20021;-79
2022/09/14 11:40:33;;;;;;;4.88;1.33;;;18.60;85.40;;;;;;5073885;28;20035;-78
2022/09/14 11:43:14;;;;;;;3.45;1.38;;;18.70;85.40;;;;;;5074085;28;20117;-79
2022/09/14 11:45:50;;;;;;;3.53;1.10;;;18.70;85.30;;;;;;5073579;28;20081;-78
2022/09/14 11:48:34;;;;;;;8.38;1.60;;;18.70;85.30;;;;;;5073677;28;20025;-79
2022/09/14 11:51:08;;;;;;;;;;;18.80;85.10;;;;;;5073652;28;20028;-79
2022/09/14 11:53:34;;;;;;;5.03;1.20;;;18.80;85.00;;;;;;5073489;28;19911;-79
2022/09/14 11:56:00;;;;;;;3.38;1.30;;;18.80;84.80;;;;;;5072972;28;20500;-79
2022/09/14 11:58:30;;;;;;;3.40;1.38;;;18.90;84.60;;;;;;5075388;28;20074;-78
2022/09/14 12:01:03;;;;;;;7.97;1.63;;;19.00;84.60;;;;;;5070478;28;21571;-78
2022/09/14 12:03:45;;;;;;;4.22;1.52;;;19.00;84.40;;;;;;5071056;28;20043;-78
2022/09/14 12:06:48;;;;;;;4.10;1.48;;;19.10;84.30;;;;;;5074200;28;20078;-79
2022/09/14 12:09:19;;;;;;;5.28;1.90;;;19.20;83.80;;;;;;5052468;28;20028;-79
2022/09/14 12:11:47;;;;;;;3.80;1.60;;;19.30;83.50;;;;;;5054362;28;20505;-80
2022/09/14 12:14:28;;;;;;;7.63;1.50;;;19.30;83.40;;;;;;5072046;28;20108;-80
2022/09/14 12:17:15;;;;;;;6.75;1.83;;;19.40;83.40;;;;;;5073089;28;20040;-79
2022/09/14 12:19:43;;;;;;;5.53;1.65;;;19.50;83.30;;;;;;5073077;28;20104;-79
2022/09/14 12:22:32;;;;;;;7.25;1.90;;;19.50;83.10;;;;;;5073346;28;20020;-79
2022/09/14 12:25:08;;;;;;;6.68;1.50;;;19.60;82.70;;;;;;5073009;28;20489;-80
2022/09/14 12:27:37;;;;;;;3.92;1.30;;;19.60;83.20;;;;;;5074276;28;20028;-79
2022/09/14 12:30:38;;;;;;;4.07;1.15;;;19.70;82.40;;;;;;5073004;28;20031;-79
2022/09/14 12:33:30;;;;;;;5.82;1.42;;;19.70;82.20;;;;;;5072938;28;20160;-80
2022/09/14 12:35:57;;;;;;;5.72;1.80;;;19.70;82.00;;;;;;5072837;28;20060;-78
2022/09/14 12:38:29;;;;;;;6.30;1.60;;;19.80;81.80;;;;;;5073198;28;20036;-79
2022/09/14 12:40:55;;;;;;;6.90;1.77;;;19.80;81.60;;;;;;5072649;28;20024;-79
2022/09/14 12:43:36;;;;;;;10.35;1.88;;;19.80;81.50;;;;;;5073877;28;20039;-79
2022/09/14 12:46:21;;;;;;;3.72;1.35;;;19.80;81.40;;;;;;5073928;28;20535;-79
2022/09/14 12:48:47;;;;;;;5.90;1.63;;;19.90;81.30;;;;;;5073343;28;20025;-81
2022/09/14 12:51:31;;;;;;;7.07;2.13;;;19.90;81.10;;;;;;5073889;28;20519;-80
2022/09/14 12:54:00;;;;;;;;;;;19.90;80.90;;;;;;5074284;28;20111;-79
2022/09/14 12:56:30;;;;;;;7.45;1.70;;;19.90;80.70;;;;;;5072340;28;19905;-79
2022/09/14 12:59:09;;;;;;;6.22;1.65;;;19.90;80.60;;;;;;5072411;28;20024;-80
2022/09/14 13:01:47;;;;;;;6.40;1.55;;;20.00;80.60;;;;;;5052504;28;20039;-80
2022/09/14 13:04:19;;;;;;;4.13;1.45;;;20.20;80.90;;;;;;5034036;28;20482;-79
2022/09/14 13:06:46;;;;;;;5.57;1.50;;;20.40;80.80;;;;;;5032479;28;20018;-79
2022/09/14 13:09:23;;;;;;;3.75;0.90;;;20.60;80.40;;;;;;5032411;28;20041;-80
2022/09/14 13:12:01;;;;;;;3.50;0.95;;;20.70;80.00;;;;;;5033726;28;20028;-79
2022/09/14 13:14:31;;;;;;;5.97;1.23;;;20.90;79.50;;;;;;5032132;28;20037;-79
2022/09/14 13:16:59;;;;;;;4.28;1.05;;;21.00;78.90;;;;;;5032217;28;20032;-80